createdAt,value
2018-12-25T00:00:21.947Z,3.70
2018-12-25T00:02:53.191Z,4.77
2018-12-25T00:05:24.480Z,3.80
2018-12-25T00:07:56.667Z,4.03
2018-12-25T00:10:27.940Z,5.50
2018-12-25T00:12:59.191Z,3.87
2018-12-25T00:15:30.367Z,6.50
2018-12-25T00:18:01.954Z,5.00
2018-12-25T00:20:33.405Z,4.47
2018-12-25T00:23:04.890Z,5.20
2018-12-25T00:25:36.448Z,7.03
2018-12-25T00:28:07.669Z,8.10
2018-12-25T00:30:38.983Z,4.57
2018-12-25T00:33:10.205Z,6.28
2018-12-25T00:35:41.526Z,4.60
2018-12-25T00:38:12.835Z,4.27
2018-12-25T00:40:44.025Z,4.10
2018-12-25T00:43:15.345Z,4.57
2018-12-25T00:45:46.609Z,7.73
2018-12-25T00:48:17.946Z,5.53
2018-12-25T00:50:49.171Z,5.00
2018-12-25T00:53:20.547Z,4.70
2018-12-25T00:55:51.958Z,4.80
2018-12-25T00:58:23.299Z,4.67
2018-12-25T01:00:54.799Z,3.43
2018-12-25T01:03:26.178Z,5.23
2018-12-25T01:05:57.590Z,4.43
2018-12-25T01:08:30.547Z,4.57
2018-12-25T01:11:01.747Z,3.93
2018-12-25T01:13:33.016Z,5.53
2018-12-25T01:16:04.341Z,4.33
2018-12-25T01:18:35.566Z,4.80
2018-12-25T01:21:06.798Z,6.67
2018-12-25T01:23:38.026Z,3.53
2018-12-25T01:26:09.248Z,4.60
2018-12-25T01:28:40.547Z,6.37
2018-12-25T01:31:12.228Z,4.50
2018-12-25T01:33:43.524Z,5.20
2018-12-25T01:36:14.847Z,4.53
2018-12-25T01:38:46.046Z,5.80
2018-12-25T01:41:17.376Z,4.90
2018-12-25T01:43:48.711Z,5.90
2018-12-25T01:50:19.919Z,6.00
2018-12-25T01:52:51.147Z,8.80
2018-12-25T01:55:22.390Z,6.53
2018-12-25T01:57:53.700Z,5.20
2018-12-25T02:01:09.740Z,5.40
2018-12-25T02:03:41.176Z,6.13
2018-12-25T02:06:12.399Z,5.57
2018-12-25T02:08:43.625Z,6.43
2018-12-25T02:11:14.887Z,6.43
2018-12-25T02:13:46.289Z,7.57
2018-12-25T02:16:17.466Z,5.60
2018-12-25T02:18:48.726Z,4.83
2018-12-25T02:21:20.010Z,4.77
2018-12-25T02:23:51.419Z,5.37
2018-12-25T02:26:23.245Z,8.57
2018-12-25T02:28:54.522Z,6.53
2018-12-25T02:31:25.959Z,8.07
2018-12-25T02:33:57.235Z,8.73
2018-12-25T02:36:28.603Z,9.70
2018-12-25T02:38:59.872Z,6.57
2018-12-25T02:41:31.366Z,7.13
2018-12-25T02:44:02.458Z,7.27
2018-12-25T02:46:33.969Z,5.83
2018-12-25T02:49:05.262Z,6.77
2018-12-25T02:51:36.660Z,6.33
2018-12-25T02:54:07.820Z,7.20
2018-12-25T02:56:39.188Z,5.23
2018-12-25T02:59:37.328Z,7.13
2018-12-25T03:02:08.587Z,6.43
2018-12-25T03:04:39.820Z,7.37
2018-12-25T03:07:11.176Z,7.73
2018-12-25T03:09:42.426Z,6.73
2018-12-25T03:12:13.700Z,5.83
2018-12-25T03:14:44.909Z,7.00
2018-12-25T03:17:16.227Z,8.03
2018-12-25T03:19:47.647Z,11.07
2018-12-25T03:22:18.948Z,8.17
2018-12-25T03:24:50.207Z,8.70
2018-12-25T03:27:21.740Z,9.53
2018-12-25T03:29:52.988Z,7.37
2018-12-25T03:32:24.258Z,7.20
2018-12-25T03:34:55.606Z,6.80
2018-12-25T03:37:27.040Z,5.87
2018-12-25T03:39:58.407Z,6.83
2018-12-25T03:42:29.847Z,8.63
2018-12-25T03:45:01.210Z,7.10
2018-12-25T03:47:32.619Z,7.83
2018-12-25T03:50:10.621Z,8.87
2018-12-25T03:52:37.070Z,8.63
2018-12-25T03:55:08.348Z,6.93
2018-12-25T03:57:39.572Z,7.75
2018-12-25T04:00:10.848Z,7.10
2018-12-25T04:02:42.271Z,7.47
2018-12-25T04:05:13.743Z,10.30
2018-12-25T04:07:45.231Z,9.03
2018-12-25T04:10:16.471Z,8.10
2018-12-25T04:12:47.908Z,9.00
2018-12-25T04:15:19.128Z,6.63
2018-12-25T04:17:50.468Z,8.30
2018-12-25T04:20:22.049Z,7.77
2018-12-25T04:22:53.389Z,6.13
2018-12-25T04:25:24.626Z,8.30
2018-12-25T04:27:55.973Z,9.80
2018-12-25T04:30:27.448Z,6.93
2018-12-25T04:32:58.808Z,9.83
2018-12-25T04:35:30.098Z,9.00
2018-12-25T04:38:01.467Z,6.87
2018-12-25T04:40:32.708Z,7.20
2018-12-25T04:43:03.919Z,7.63
2018-12-25T04:45:35.227Z,6.97
2018-12-25T04:48:06.506Z,8.63
2018-12-25T04:50:37.710Z,8.33
2018-12-25T04:53:08.908Z,8.20
2018-12-25T04:55:40.251Z,9.13
2018-12-25T04:58:11.666Z,7.60
2018-12-25T05:00:43.012Z,7.93
2018-12-25T05:03:14.266Z,9.47
2018-12-25T05:05:45.546Z,8.43
2018-12-25T05:08:16.876Z,6.53
2018-12-25T05:10:48.288Z,8.07
2018-12-25T05:13:19.628Z,5.93
2018-12-25T05:15:50.947Z,7.87
2018-12-25T05:18:22.248Z,7.87
2018-12-25T05:20:53.688Z,6.93
2018-12-25T05:23:24.986Z,7.17
2018-12-25T05:25:56.316Z,6.47
2018-12-25T05:28:27.546Z,5.47
2018-12-25T05:30:58.868Z,8.63
2018-12-25T05:33:30.226Z,7.63
2018-12-25T05:36:01.528Z,5.60
2018-12-25T05:38:32.826Z,8.27
2018-12-25T05:41:04.167Z,6.87
2018-12-25T05:43:35.446Z,7.23
2018-12-25T05:46:06.889Z,8.70
2018-12-25T05:48:38.206Z,7.80
2018-12-25T05:51:09.526Z,7.30
2018-12-25T05:53:40.788Z,8.40
2018-12-25T05:56:12.248Z,6.53
2018-12-25T05:58:43.503Z,6.90
2018-12-25T06:01:20.888Z,6.43
2018-12-25T06:03:52.146Z,8.43
2018-12-25T06:06:23.388Z,6.97
2018-12-25T06:08:54.667Z,8.70
2018-12-25T06:11:25.807Z,7.73
2018-12-25T06:14:30.147Z,12.23
2018-12-25T06:17:01.386Z,12.10
2018-12-25T06:19:32.728Z,12.37
2018-12-25T06:22:04.008Z,11.70
2018-12-25T06:24:35.228Z,9.17
2018-12-25T06:27:06.505Z,12.07
2018-12-25T06:29:37.787Z,13.47
2018-12-25T06:32:09.167Z,11.60
2018-12-25T06:34:40.546Z,9.37
2018-12-25T06:37:11.867Z,11.63
2018-12-25T06:39:43.186Z,11.00
2018-12-25T06:42:14.387Z,8.93
2018-12-25T06:44:45.687Z,8.07
2018-12-25T06:47:16.987Z,9.00
2018-12-25T06:49:48.309Z,5.73
2018-12-25T06:52:19.587Z,8.73
2018-12-25T06:54:50.900Z,8.13
2018-12-25T06:57:22.140Z,8.57
2018-12-25T06:59:53.348Z,8.13
2018-12-25T07:02:24.628Z,8.90
2018-12-25T07:04:56.043Z,7.50
2018-12-25T07:07:27.505Z,8.67
2018-12-25T07:09:58.896Z,7.77
2018-12-25T07:12:31.188Z,8.23
2018-12-25T07:15:02.708Z,6.83
2018-12-25T07:17:34.078Z,9.93
2018-12-25T07:20:05.857Z,6.67
2018-12-25T07:22:37.205Z,10.10
2018-12-25T07:25:08.595Z,8.00
2018-12-25T07:27:39.927Z,8.90
2018-12-25T07:30:11.175Z,9.47
2018-12-25T07:32:42.459Z,9.07
2018-12-25T07:35:14.287Z,7.63
2018-12-25T07:37:45.567Z,8.17
2018-12-25T07:40:16.785Z,7.57
2018-12-25T07:42:48.006Z,9.60
2018-12-25T07:45:19.218Z,8.43
2018-12-25T07:47:51.384Z,11.03
2018-12-25T07:50:22.599Z,6.87
2018-12-25T07:52:54.066Z,8.17
2018-12-25T07:55:25.258Z,8.00
2018-12-25T07:57:56.544Z,10.37
2018-12-25T08:00:27.786Z,9.03
2018-12-25T08:02:59.286Z,9.57
2018-12-25T08:05:30.665Z,9.07
2018-12-25T08:08:02.052Z,9.60
2018-12-25T08:10:33.388Z,9.47
2018-12-25T08:13:04.942Z,20.53
2018-12-25T08:15:36.205Z,14.37
2018-12-25T08:18:07.646Z,10.37
2018-12-25T08:20:38.939Z,13.30
2018-12-25T08:23:10.265Z,9.47
2018-12-25T08:25:41.578Z,7.97
2018-12-25T08:28:12.838Z,9.37
2018-12-25T08:30:44.065Z,7.27
2018-12-25T08:33:16.290Z,6.53
2018-12-25T08:35:47.784Z,8.67
2018-12-25T08:38:19.107Z,8.27
2018-12-25T08:40:50.462Z,6.23
2018-12-25T08:43:21.779Z,8.43
2018-12-25T08:45:53.186Z,8.20
2018-12-25T08:48:24.466Z,6.80
2018-12-25T08:50:55.726Z,10.53
2018-12-25T08:53:27.039Z,8.10
2018-12-25T08:55:58.306Z,7.50
2018-12-25T08:58:29.679Z,9.97
2018-12-25T09:01:01.525Z,7.83
2018-12-25T09:03:32.959Z,9.00
2018-12-25T09:06:04.308Z,9.57
2018-12-25T09:08:35.707Z,7.83
2018-12-25T09:11:07.100Z,8.67
2018-12-25T09:13:38.326Z,8.40
2018-12-25T09:16:09.687Z,8.53
2018-12-25T09:18:41.282Z,10.47
2018-12-25T09:21:12.586Z,9.47
2018-12-25T09:23:43.834Z,9.00
2018-12-25T09:26:15.009Z,9.20
2018-12-25T09:29:11.974Z,6.63
2018-12-25T09:31:43.301Z,7.70
2018-12-25T09:34:14.319Z,7.30
2018-12-25T09:36:53.480Z,11.23
2018-12-25T09:39:25.174Z,9.13
2018-12-25T09:41:56.446Z,9.90
2018-12-25T09:44:27.716Z,8.17
2018-12-25T09:46:58.925Z,8.13
2018-12-25T09:49:30.208Z,7.87
2018-12-25T09:52:01.527Z,7.53
2018-12-25T09:54:35.703Z,9.00
2018-12-25T09:57:06.941Z,9.80
2018-12-25T09:59:38.106Z,7.53
2018-12-25T10:02:15.220Z,9.53
2018-12-25T10:04:46.479Z,11.80
2018-12-25T10:07:17.899Z,9.63
2018-12-25T10:09:49.183Z,8.20
2018-12-25T10:12:20.779Z,7.60
2018-12-25T10:14:52.019Z,8.57
2018-12-25T10:17:23.399Z,7.77
2018-12-25T10:19:54.683Z,9.93
2018-12-25T10:22:26.377Z,11.80
2018-12-25T10:24:57.586Z,9.10
2018-12-25T10:27:28.885Z,11.17
2018-12-25T10:30:00.229Z,10.23
2018-12-25T10:32:31.453Z,9.00
2018-12-25T10:35:02.809Z,11.27
2018-12-25T10:37:34.185Z,8.27
2018-12-25T10:40:05.610Z,12.30
2018-12-25T10:42:36.845Z,9.30
2018-12-25T10:45:08.293Z,9.53
2018-12-25T10:47:39.449Z,10.30
2018-12-25T10:50:11.173Z,7.97
2018-12-25T10:52:42.656Z,8.73
2018-12-25T10:55:14.160Z,10.83
2018-12-25T10:57:45.685Z,10.00
2018-12-25T11:00:18.115Z,8.63
2018-12-25T11:02:49.405Z,8.97
2018-12-25T11:05:20.857Z,8.47
2018-12-25T11:07:52.080Z,10.43
2018-12-25T11:10:23.567Z,10.93
2018-12-25T11:12:54.739Z,7.93
2018-12-25T11:15:26.006Z,9.27
2018-12-25T11:17:57.203Z,9.10
2018-12-25T11:20:29.156Z,9.17
2018-12-25T11:23:00.625Z,11.30
2018-12-25T11:25:31.924Z,12.70
2018-12-25T11:28:03.242Z,8.73
2018-12-25T11:30:34.708Z,9.80
2018-12-25T11:33:05.988Z,10.13
2018-12-25T11:35:37.985Z,10.07
2018-12-25T11:38:09.325Z,14.13
2018-12-25T11:40:40.851Z,10.40
2018-12-25T11:43:12.147Z,9.77
2018-12-25T11:45:43.427Z,7.57
2018-12-25T11:48:14.910Z,10.17
2018-12-25T11:50:46.983Z,10.07
2018-12-25T11:53:18.163Z,13.87
2018-12-25T11:55:49.706Z,10.63
2018-12-25T11:58:20.925Z,12.33
2018-12-25T12:00:52.325Z,10.77
2018-12-25T12:04:01.509Z,10.43
2018-12-25T12:06:32.677Z,8.53
2018-12-25T12:09:04.885Z,9.33
2018-12-25T12:11:36.239Z,10.33
2018-12-25T12:14:07.705Z,11.40
2018-12-25T12:20:03.016Z,10.70
2018-12-25T12:22:37.043Z,8.80
2018-12-25T12:25:48.166Z,10.53
2018-12-25T12:28:20.844Z,13.73
2018-12-25T12:31:10.037Z,8.20
2018-12-25T12:34:39.016Z,9.60
2018-12-25T12:37:47.607Z,11.17
2018-12-25T12:41:14.742Z,9.17
2018-12-25T12:44:27.267Z,8.60
2018-12-25T12:50:05.146Z,10.97
2018-12-25T12:52:36.670Z,10.10
2018-12-25T12:59:16.881Z,10.27
2018-12-25T13:01:53.117Z,9.30
2018-12-25T13:04:24.866Z,9.77
2018-12-25T13:07:01.592Z,9.17
2018-12-25T13:30:53.046Z,8.50
2018-12-25T13:33:24.288Z,11.03
2018-12-25T13:36:07.927Z,8.80
2018-12-25T13:38:41.865Z,11.60
2018-12-25T13:46:51.736Z,9.30
2018-12-25T13:49:21.249Z,9.03
2018-12-25T13:51:52.841Z,9.97
2018-12-25T13:54:24.565Z,11.67
2018-12-25T13:56:59.255Z,11.80
2018-12-25T14:15:21.811Z,10.70
2018-12-25T14:18:36.220Z,13.70
2018-12-25T14:21:10.125Z,12.13
2018-12-25T14:24:07.618Z,13.23
2018-12-25T14:26:55.926Z,11.50
2018-12-25T14:30:35.886Z,8.90
2018-12-25T14:33:06.654Z,11.97
2018-12-25T14:35:50.725Z,13.33
2018-12-25T14:38:43.306Z,14.23
2018-12-25T14:41:28.046Z,12.50
2018-12-25T14:44:18.765Z,11.97
2018-12-25T14:47:27.745Z,12.27
2018-12-25T14:50:14.446Z,12.13
2018-12-25T14:53:01.643Z,11.33
2018-12-25T14:55:56.506Z,11.93
2018-12-25T14:59:26.446Z,14.07
2018-12-25T15:02:39.341Z,11.33
2018-12-25T15:05:30.677Z,13.13
2018-12-25T15:08:16.826Z,11.17
2018-12-25T15:11:13.266Z,10.80
2018-12-25T15:13:58.808Z,13.50
2018-12-25T15:18:15.127Z,13.17
2018-12-25T15:21:07.245Z,13.83
2018-12-25T15:24:07.968Z,19.47
2018-12-25T15:26:26.225Z,13.83
2018-12-25T15:56:52.285Z,12.93
2018-12-25T16:00:38.975Z,16.87
2018-12-25T16:07:30.705Z,15.17
2018-12-25T16:22:45.428Z,11.20
2018-12-25T16:25:16.886Z,13.10
2018-12-25T16:27:51.639Z,13.23
2018-12-25T16:30:22.979Z,10.20
2018-12-25T16:32:54.353Z,12.30
2018-12-25T16:35:25.655Z,12.70
2018-12-25T16:37:57.060Z,14.93
2018-12-25T16:40:28.598Z,14.07
2018-12-25T16:42:59.947Z,12.03
2018-12-25T16:45:31.835Z,15.13
2018-12-25T16:48:03.288Z,16.53
2018-12-25T16:50:34.658Z,13.17
2018-12-25T16:53:06.496Z,12.40
2018-12-25T16:55:37.848Z,11.87
2018-12-25T16:58:09.235Z,12.63
2018-12-25T17:00:40.588Z,13.27
2018-12-25T17:03:11.926Z,13.63
2018-12-25T17:05:43.548Z,13.53
2018-12-25T17:08:15.167Z,13.53
2018-12-25T17:10:46.694Z,14.47
2018-12-25T17:13:18.322Z,12.93
2018-12-25T17:15:49.857Z,13.40
2018-12-25T17:18:21.546Z,15.77
2018-12-25T17:20:53.386Z,11.67
2018-12-25T17:23:24.799Z,14.10
2018-12-25T17:25:56.231Z,11.03
2018-12-25T17:28:27.981Z,12.35
2018-12-25T17:30:59.726Z,13.27
2018-12-25T17:33:31.046Z,14.47
2018-12-25T17:36:02.501Z,14.00
2018-12-25T17:38:34.128Z,13.80
2018-12-25T17:41:05.608Z,14.07
2018-12-25T17:43:37.140Z,12.70
2018-12-25T17:46:08.586Z,13.97
2018-12-25T17:48:40.163Z,13.43
2018-12-25T17:51:11.636Z,15.30
2018-12-25T17:53:43.068Z,14.23
2018-12-25T17:56:14.712Z,15.77
2018-12-25T17:58:46.468Z,16.97
2018-12-25T18:01:17.908Z,13.83
2018-12-25T18:03:49.445Z,16.23
2018-12-25T18:06:20.890Z,14.23
2018-12-25T18:08:52.467Z,13.13
2018-12-25T18:11:23.931Z,15.33
2018-12-25T18:13:55.841Z,16.97
2018-12-25T18:16:27.187Z,15.47
2018-12-25T18:18:58.600Z,14.53
2018-12-25T18:21:29.926Z,12.73
2018-12-25T18:24:01.380Z,17.07
2018-12-25T18:26:32.760Z,14.00
2018-12-25T18:29:04.487Z,14.50
2018-12-25T18:31:35.886Z,15.00
2018-12-25T18:34:07.550Z,13.40
2018-12-25T18:36:39.145Z,13.97
2018-12-25T18:39:10.912Z,13.87
2018-12-25T18:41:42.440Z,14.33
2018-12-25T18:44:13.939Z,14.90
2018-12-25T18:46:45.448Z,12.93
2018-12-25T18:49:16.987Z,16.70
2018-12-25T18:51:48.766Z,12.43
2018-12-25T18:54:27.779Z,13.80
2018-12-25T18:56:53.968Z,11.80
2018-12-25T18:59:25.568Z,12.00
2018-12-25T19:01:57.205Z,17.23
2018-12-25T19:04:28.836Z,14.37
2018-12-25T19:07:00.829Z,15.00
2018-12-25T19:09:32.900Z,12.40
2018-12-25T19:12:04.496Z,13.70
2018-12-25T19:14:37.946Z,14.67
2018-12-25T19:17:09.449Z,13.40
2018-12-25T19:19:41.107Z,13.33
2018-12-25T19:22:12.527Z,15.87
2018-12-25T19:24:44.116Z,14.93
2018-12-25T19:27:15.626Z,16.90
2018-12-25T19:29:47.867Z,14.23
2018-12-25T19:32:19.726Z,16.80
2018-12-25T19:34:51.467Z,15.07
2018-12-25T19:37:23.157Z,10.93
2018-12-25T19:39:54.966Z,13.60
2018-12-25T19:42:26.888Z,14.25
2018-12-25T19:44:58.608Z,12.70
2018-12-25T19:47:31.000Z,11.47
2018-12-25T19:50:03.261Z,12.50
2018-12-25T19:52:35.037Z,15.60
2018-12-25T19:55:07.607Z,14.70
2018-12-25T19:57:42.218Z,14.63
2018-12-25T20:00:16.374Z,12.60
2018-12-25T20:02:57.907Z,14.00
2018-12-25T20:06:33.928Z,15.67
2018-12-25T20:10:00.557Z,14.77
2018-12-25T20:13:44.106Z,15.17
2018-12-25T20:17:19.156Z,12.67
2018-12-25T20:21:15.237Z,11.97
2018-12-25T20:24:52.566Z,11.27
2018-12-25T20:28:17.411Z,11.73
2018-12-25T20:31:48.908Z,14.20
2018-12-25T20:35:23.227Z,14.03
2018-12-25T20:38:54.835Z,11.70
2018-12-25T20:42:43.915Z,14.10
2018-12-25T20:46:27.585Z,12.17
2018-12-25T20:50:19.872Z,13.53
2018-12-25T20:53:46.146Z,11.33
2018-12-25T20:57:29.201Z,13.33
2018-12-25T21:01:14.363Z,11.07
2018-12-25T21:04:43.109Z,13.30
2018-12-25T21:07:49.807Z,11.20
2018-12-25T21:11:23.408Z,12.70
2018-12-25T21:15:10.185Z,13.17
2018-12-25T21:18:41.599Z,14.20
2018-12-25T21:22:24.268Z,15.07
2018-12-25T21:25:51.071Z,15.17
2018-12-25T21:28:19.673Z,19.57
2018-12-25T21:30:51.914Z,13.60
2018-12-25T21:33:23.871Z,13.93
2018-12-25T21:35:55.990Z,13.30
2018-12-25T21:38:28.590Z,14.23
2018-12-25T21:41:01.283Z,14.00
2018-12-25T21:43:33.552Z,13.00
2018-12-25T21:46:06.343Z,12.77
2018-12-25T21:48:38.584Z,13.20
2018-12-25T21:51:10.874Z,13.23
2018-12-25T21:53:42.742Z,13.17
2018-12-25T21:56:15.017Z,14.80
2018-12-25T21:58:47.658Z,15.88
2018-12-25T22:01:19.637Z,12.50
2018-12-25T22:03:51.471Z,15.37
2018-12-25T22:06:23.168Z,13.00
2018-12-25T22:08:54.785Z,13.23
2018-12-25T22:11:26.348Z,12.83
2018-12-25T22:13:57.897Z,11.77
2018-12-25T22:16:29.605Z,18.23
2018-12-25T22:19:01.410Z,15.78
2018-12-25T22:21:33.139Z,13.30
2018-12-25T22:24:04.704Z,12.40
2018-12-25T22:26:36.405Z,13.20
2018-12-25T22:29:07.845Z,11.90
2018-12-25T22:31:39.463Z,11.33
2018-12-25T22:34:11.009Z,12.07
2018-12-25T22:36:42.808Z,12.90
2018-12-25T22:39:14.155Z,13.53
2018-12-25T22:41:45.788Z,12.07
2018-12-25T22:44:17.869Z,9.87
2018-12-25T22:46:49.662Z,15.57
2018-12-25T22:49:21.547Z,11.27
2018-12-25T22:51:53.333Z,12.80
2018-12-25T22:54:25.430Z,11.37
2018-12-25T22:56:56.947Z,12.93
2018-12-25T22:59:28.445Z,12.57
2018-12-25T23:02:00.251Z,11.57
2018-12-25T23:04:32.529Z,12.07
2018-12-25T23:07:04.021Z,11.03
2018-12-25T23:09:35.389Z,13.47
2018-12-25T23:12:06.898Z,10.93
2018-12-25T23:14:38.536Z,12.50
2018-12-25T23:17:10.171Z,13.03
2018-12-25T23:19:42.119Z,10.53
2018-12-25T23:22:13.791Z,15.90
2018-12-25T23:24:45.259Z,9.83
2018-12-25T23:27:16.766Z,11.77
2018-12-25T23:29:48.328Z,14.73
2018-12-25T23:32:21.975Z,12.60
2018-12-25T23:34:53.614Z,12.10
2018-12-25T23:37:25.449Z,13.23
2018-12-25T23:39:57.157Z,12.63
2018-12-25T23:42:28.611Z,14.73
2018-12-25T23:45:00.206Z,14.47
2018-12-25T23:47:31.740Z,16.13
2018-12-25T23:50:03.288Z,13.77
2018-12-25T23:52:34.875Z,11.80
2018-12-25T23:55:06.563Z,13.73
2018-12-25T23:57:38.148Z,12.80
